sensor_id;sensor_type;location;lat;lon;timestamp;temperature;humidity
71096;DHT22;58753;49.440;11.126;2023-12-14T00:01:11;5.75;98.22
71096;DHT22;58753;49.440;11.126;2023-12-14T00:03:39;5.77;98.24
71096;DHT22;58753;49.440;11.126;2023-12-14T00:06:07;5.78;98.27
71096;DHT22;58753;49.440;11.126;2023-12-14T00:08:32;5.81;98.25
71096;DHT22;58753;49.440;11.126;2023-12-14T00:11:09;5.83;98.25
71096;DHT22;58753;49.440;11.126;2023-12-14T00:13:35;5.84;98.23
71096;DHT22;58753;49.440;11.126;2023-12-14T00:16:01;5.86;98.26
71096;DHT22;58753;49.440;11.126;2023-12-14T00:18:26;5.84;98.29
71096;DHT22;58753;49.440;11.126;2023-12-14T00:20:52;5.87;98.29
71096;DHT22;58753;49.440;11.126;2023-12-14T00:23:19;5.89;98.31
71096;DHT22;58753;49.440;11.126;2023-12-14T00:25:45;5.89;98.30
71096;DHT22;58753;49.440;11.126;2023-12-14T00:28:10;5.90;98.27
71096;DHT22;58753;49.440;11.126;2023-12-14T00:30:35;5.91;98.23
71096;DHT22;58753;49.440;11.126;2023-12-14T00:33:01;5.90;98.24
71096;DHT22;58753;49.440;11.126;2023-12-14T00:35:26;5.89;98.25
71096;DHT22;58753;49.440;11.126;2023-12-14T00:37:52;5.89;98.24
71096;DHT22;58753;49.440;11.126;2023-12-14T00:40:17;5.90;98.21
71096;DHT22;58753;49.440;11.126;2023-12-14T00:42:42;5.91;98.17
71096;DHT22;58753;49.440;11.126;2023-12-14T00:45:08;5.89;98.22
71096;DHT22;58753;49.440;11.126;2023-12-14T00:47:34;5.90;98.21
71096;DHT22;58753;49.440;11.126;2023-12-14T00:49:59;5.90;98.20
71096;DHT22;58753;49.440;11.126;2023-12-14T00:52:24;5.91;98.18
71096;DHT22;58753;49.440;11.126;2023-12-14T00:54:50;5.91;98.21
71096;DHT22;58753;49.440;11.126;2023-12-14T00:57:15;5.93;98.24
71096;DHT22;58753;49.440;11.126;2023-12-14T00:59:41;5.94;98.21
71096;DHT22;58753;49.440;11.126;2023-12-14T01:02:06;5.95;98.17
71096;DHT22;58753;49.440;11.126;2023-12-14T01:04:32;5.97;98.15
71096;DHT22;58753;49.440;11.126;2023-12-14T01:06:57;5.94;98.15
71096;DHT22;58753;49.440;11.126;2023-12-14T01:09:23;5.97;98.13
71096;DHT22;58753;49.440;11.126;2023-12-14T01:11:48;5.97;98.09
71096;DHT22;58753;49.440;11.126;2023-12-14T01:14:13;5.95;98.10
71096;DHT22;58753;49.440;11.126;2023-12-14T01:16:39;5.95;98.14
71096;DHT22;58753;49.440;11.126;2023-12-14T01:19:04;5.94;98.13
71096;DHT22;58753;49.440;11.126;2023-12-14T01:21:31;5.91;98.10
71096;DHT22;58753;49.440;11.126;2023-12-14T01:23:57;5.90;98.16
71096;DHT22;58753;49.440;11.126;2023-12-14T01:26:22;5.91;98.19
71096;DHT22;58753;49.440;11.126;2023-12-14T01:28:47;5.91;98.17
71096;DHT22;58753;49.440;11.126;2023-12-14T01:31:13;5.90;98.14
71096;DHT22;58753;49.440;11.126;2023-12-14T01:33:38;5.87;98.17
71096;DHT22;58753;49.440;11.126;2023-12-14T01:36:04;5.90;98.12
71096;DHT22;58753;49.440;11.126;2023-12-14T01:38:29;5.87;98.13
71096;DHT22;58753;49.440;11.126;2023-12-14T01:40:55;5.87;98.15
71096;DHT22;58753;49.440;11.126;2023-12-14T01:43:21;5.83;98.13
71096;DHT22;58753;49.440;11.126;2023-12-14T01:45:47;5.81;98.15
71096;DHT22;58753;49.440;11.126;2023-12-14T01:48:12;5.84;98.16
71096;DHT22;58753;49.440;11.126;2023-12-14T01:50:38;5.84;98.13
71096;DHT22;58753;49.440;11.126;2023-12-14T01:53:03;5.83;98.15
71096;DHT22;58753;49.440;11.126;2023-12-14T01:55:29;5.80;98.13
71096;DHT22;58753;49.440;11.126;2023-12-14T01:57:54;5.83;98.18
71096;DHT22;58753;49.440;11.126;2023-12-14T02:00:52;5.81;98.16
71096;DHT22;58753;49.440;11.126;2023-12-14T02:03:20;5.78;98.17
71096;DHT22;58753;49.440;11.126;2023-12-14T02:05:46;5.80;98.13
71096;DHT22;58753;49.440;11.126;2023-12-14T02:08:11;5.80;98.16
71096;DHT22;58753;49.440;11.126;2023-12-14T02:10:37;5.80;98.20
71096;DHT22;58753;49.440;11.126;2023-12-14T02:13:02;5.81;98.17
71096;DHT22;58753;49.440;11.126;2023-12-14T02:15:28;5.78;98.14
71096;DHT22;58753;49.440;11.126;2023-12-14T02:17:53;5.81;98.14
71096;DHT22;58753;49.440;11.126;2023-12-14T02:20:19;5.81;98.14
71096;DHT22;58753;49.440;11.126;2023-12-14T02:22:48;5.83;98.06
71096;DHT22;58753;49.440;11.126;2023-12-14T02:25:18;5.78;98.07
71096;DHT22;58753;49.440;11.126;2023-12-14T02:27:43;5.78;98.08
71096;DHT22;58753;49.440;11.126;2023-12-14T02:30:09;5.78;98.10
71096;DHT22;58753;49.440;11.126;2023-12-14T02:32:35;5.80;98.02
71096;DHT22;58753;49.440;11.126;2023-12-14T02:35:00;5.78;98.09
71096;DHT22;58753;49.440;11.126;2023-12-14T02:37:26;5.75;98.05
71096;DHT22;58753;49.440;11.126;2023-12-14T02:39:51;5.75;98.04
71096;DHT22;58753;49.440;11.126;2023-12-14T02:42:16;5.75;97.98
71096;DHT22;58753;49.440;11.126;2023-12-14T02:44:42;5.74;98.00
71096;DHT22;58753;49.440;11.126;2023-12-14T02:47:07;5.71;97.99
71096;DHT22;58753;49.440;11.126;2023-12-14T02:49:33;5.66;98.04
71096;DHT22;58753;49.440;11.126;2023-12-14T02:51:58;5.66;98.07
71096;DHT22;58753;49.440;11.126;2023-12-14T02:54:24;5.66;98.08
71096;DHT22;58753;49.440;11.126;2023-12-14T02:56:49;5.66;98.02
71096;DHT22;58753;49.440;11.126;2023-12-14T02:59:15;5.67;98.09
71096;DHT22;58753;49.440;11.126;2023-12-14T03:01:40;5.64;98.07
71096;DHT22;58753;49.440;11.126;2023-12-14T03:04:06;5.66;98.10
71096;DHT22;58753;49.440;11.126;2023-12-14T03:06:32;5.69;98.10
71096;DHT22;58753;49.440;11.126;2023-12-14T03:08:58;5.67;98.03
71096;DHT22;58753;49.440;11.126;2023-12-14T03:11:24;5.69;98.06
71096;DHT22;58753;49.440;11.126;2023-12-14T03:13:49;5.70;98.06
71096;DHT22;58753;49.440;11.126;2023-12-14T03:16:15;5.69;98.03
71096;DHT22;58753;49.440;11.126;2023-12-14T03:18:42;5.70;98.09
71096;DHT22;58753;49.440;11.126;2023-12-14T03:21:09;5.71;98.05
71096;DHT22;58753;49.440;11.126;2023-12-14T03:23:34;5.70;98.04
71096;DHT22;58753;49.440;11.126;2023-12-14T03:26:00;5.71;98.04
71096;DHT22;58753;49.440;11.126;2023-12-14T03:28:26;5.73;98.11
71096;DHT22;58753;49.440;11.126;2023-12-14T03:30:52;5.73;98.02
71096;DHT22;58753;49.440;11.126;2023-12-14T03:33:17;5.73;98.02
71096;DHT22;58753;49.440;11.126;2023-12-14T03:35:42;5.73;98.03
71096;DHT22;58753;49.440;11.126;2023-12-14T03:38:09;5.74;97.94
71096;DHT22;58753;49.440;11.126;2023-12-14T03:40:34;5.70;97.94
71096;DHT22;58753;49.440;11.126;2023-12-14T03:43:01;5.69;97.97
71096;DHT22;58753;49.440;11.126;2023-12-14T03:45:26;5.69;97.95
71096;DHT22;58753;49.440;11.126;2023-12-14T03:47:51;5.69;97.93
71096;DHT22;58753;49.440;11.126;2023-12-14T03:50:17;5.67;97.99
71096;DHT22;58753;49.440;11.126;2023-12-14T03:52:42;5.69;97.90
71096;DHT22;58753;49.440;11.126;2023-12-14T03:55:08;5.66;97.86
71096;DHT22;58753;49.440;11.126;2023-12-14T03:57:34;5.64;97.87
71096;DHT22;58753;49.440;11.126;2023-12-14T03:59:59;5.61;97.97
71096;DHT22;58753;49.440;11.126;2023-12-14T04:02:24;5.63;98.00
71096;DHT22;58753;49.440;11.126;2023-12-14T04:04:50;5.64;98.00
71096;DHT22;58753;49.440;11.126;2023-12-14T04:07:15;5.67;97.98
71096;DHT22;58753;49.440;11.126;2023-12-14T04:09:41;5.63;97.85
71096;DHT22;58753;49.440;11.126;2023-12-14T04:12:06;5.61;97.92
71096;DHT22;58753;49.440;11.126;2023-12-14T04:14:31;5.64;97.86
71096;DHT22;58753;49.440;11.126;2023-12-14T04:16:57;5.63;97.92
71096;DHT22;58753;49.440;11.126;2023-12-14T04:19:22;5.63;97.79
71096;DHT22;58753;49.440;11.126;2023-12-14T04:21:48;5.63;97.82
71096;DHT22;58753;49.440;11.126;2023-12-14T04:24:13;5.59;97.88
71096;DHT22;58753;49.440;11.126;2023-12-14T04:26:39;5.61;97.89
71096;DHT22;58753;49.440;11.126;2023-12-14T04:29:07;5.64;97.92
71096;DHT22;58753;49.440;11.126;2023-12-14T04:31:34;5.64;97.86
71096;DHT22;58753;49.440;11.126;2023-12-14T04:33:59;5.66;97.84
71096;DHT22;58753;49.440;11.126;2023-12-14T04:36:24;5.63;97.79
71096;DHT22;58753;49.440;11.126;2023-12-14T04:38:50;5.61;97.78
71096;DHT22;58753;49.440;11.126;2023-12-14T04:41:15;5.64;97.73
71096;DHT22;58753;49.440;11.126;2023-12-14T04:43:41;5.63;97.70
71096;DHT22;58753;49.440;11.126;2023-12-14T04:46:06;5.60;97.68
71096;DHT22;58753;49.440;11.126;2023-12-14T04:48:32;5.63;97.72
71096;DHT22;58753;49.440;11.126;2023-12-14T04:50:57;5.60;97.67
71096;DHT22;58753;49.440;11.126;2023-12-14T04:53:23;5.59;97.67
71096;DHT22;58753;49.440;11.126;2023-12-14T04:55:48;5.61;97.63
71096;DHT22;58753;49.440;11.126;2023-12-14T04:58:13;5.57;97.72
71096;DHT22;58753;49.440;11.126;2023-12-14T05:00:39;5.57;97.65
71096;DHT22;58753;49.440;11.126;2023-12-14T05:03:04;5.54;97.63
71096;DHT22;58753;49.440;11.126;2023-12-14T05:05:30;5.56;97.68
71096;DHT22;58753;49.440;11.126;2023-12-14T05:07:55;5.56;97.71
71096;DHT22;58753;49.440;11.126;2023-12-14T05:10:21;5.51;97.63
71096;DHT22;58753;49.440;11.126;2023-12-14T05:12:46;5.50;97.68
71096;DHT22;58753;49.440;11.126;2023-12-14T05:15:12;5.49;97.69
71096;DHT22;58753;49.440;11.126;2023-12-14T05:17:37;5.51;97.71
71096;DHT22;58753;49.440;11.126;2023-12-14T05:20:04;5.49;97.71
71096;DHT22;58753;49.440;11.126;2023-12-14T05:22:30;5.49;97.72
71096;DHT22;58753;49.440;11.126;2023-12-14T05:24:55;5.51;97.65
71096;DHT22;58753;49.440;11.126;2023-12-14T05:27:21;5.50;97.63
71096;DHT22;58753;49.440;11.126;2023-12-14T05:29:46;5.51;97.69
71096;DHT22;58753;49.440;11.126;2023-12-14T05:32:12;5.51;97.70
71096;DHT22;58753;49.440;11.126;2023-12-14T05:34:37;5.49;97.63
71096;DHT22;58753;49.440;11.126;2023-12-14T05:37:03;5.50;97.66
71096;DHT22;58753;49.440;11.126;2023-12-14T05:39:29;5.49;97.71
71096;DHT22;58753;49.440;11.126;2023-12-14T05:41:54;5.51;97.69
71096;DHT22;58753;49.440;11.126;2023-12-14T05:44:19;5.53;97.64
71096;DHT22;58753;49.440;11.126;2023-12-14T05:46:45;5.49;97.63
71096;DHT22;58753;49.440;11.126;2023-12-14T05:49:10;5.46;97.61
71096;DHT22;58753;49.440;11.126;2023-12-14T05:51:36;5.47;97.65
71096;DHT22;58753;49.440;11.126;2023-12-14T05:54:03;5.46;97.60
71096;DHT22;58753;49.440;11.126;2023-12-14T05:56:28;5.43;97.59
71096;DHT22;58753;49.440;11.126;2023-12-14T05:58:55;5.44;97.57
71096;DHT22;58753;49.440;11.126;2023-12-14T06:01:20;5.46;97.58
71096;DHT22;58753;49.440;11.126;2023-12-14T06:03:46;5.44;97.59
71096;DHT22;58753;49.440;11.126;2023-12-14T06:06:12;5.46;97.61
71096;DHT22;58753;49.440;11.126;2023-12-14T06:08:41;5.43;97.60
71096;DHT22;58753;49.440;11.126;2023-12-14T06:11:07;5.46;97.61
71096;DHT22;58753;49.440;11.126;2023-12-14T06:13:33;5.47;97.64
71096;DHT22;58753;49.440;11.126;2023-12-14T06:15:58;5.50;97.68
71096;DHT22;58753;49.440;11.126;2023-12-14T06:18:24;5.49;97.58
71096;DHT22;58753;49.440;11.126;2023-12-14T06:20:49;5.51;97.56
71096;DHT22;58753;49.440;11.126;2023-12-14T06:23:15;5.49;97.57
71096;DHT22;58753;49.440;11.126;2023-12-14T06:25:40;5.51;97.59
71096;DHT22;58753;49.440;11.126;2023-12-14T06:28:06;5.54;97.55
71096;DHT22;58753;49.440;11.126;2023-12-14T06:30:31;5.53;97.51
71096;DHT22;58753;49.440;11.126;2023-12-14T06:32:56;5.51;97.54
71096;DHT22;58753;49.440;11.126;2023-12-14T06:35:22;5.54;97.61
71096;DHT22;58753;49.440;11.126;2023-12-14T06:37:47;5.57;97.56
71096;DHT22;58753;49.440;11.126;2023-12-14T06:40:13;5.57;97.54
71096;DHT22;58753;49.440;11.126;2023-12-14T06:42:39;5.56;97.51
71096;DHT22;58753;49.440;11.126;2023-12-14T06:45:05;5.57;97.49
71096;DHT22;58753;49.440;11.126;2023-12-14T06:47:30;5.60;97.51
71096;DHT22;58753;49.440;11.126;2023-12-14T06:49:56;5.60;97.45
71096;DHT22;58753;49.440;11.126;2023-12-14T06:52:22;5.61;97.50
71096;DHT22;58753;49.440;11.126;2023-12-14T06:54:48;5.61;97.46
71096;DHT22;58753;49.440;11.126;2023-12-14T06:57:14;5.61;97.38
71096;DHT22;58753;49.440;11.126;2023-12-14T06:59:39;5.61;97.43
71096;DHT22;58753;49.440;11.126;2023-12-14T07:02:05;5.61;97.41
71096;DHT22;58753;49.440;11.126;2023-12-14T07:04:31;5.60;97.32
71096;DHT22;58753;49.440;11.126;2023-12-14T07:06:56;5.61;97.40
71096;DHT22;58753;49.440;11.126;2023-12-14T07:09:22;5.59;97.36
71096;DHT22;58753;49.440;11.126;2023-12-14T07:11:47;5.59;97.38
71096;DHT22;58753;49.440;11.126;2023-12-14T07:14:13;5.60;97.35
71096;DHT22;58753;49.440;11.126;2023-12-14T07:16:40;5.57;97.37
71096;DHT22;58753;49.440;11.126;2023-12-14T07:19:06;5.59;97.36
71096;DHT22;58753;49.440;11.126;2023-12-14T07:21:31;5.60;97.38
71096;DHT22;58753;49.440;11.126;2023-12-14T07:23:57;5.57;97.35
71096;DHT22;58753;49.440;11.126;2023-12-14T07:26:22;5.61;97.28
71096;DHT22;58753;49.440;11.126;2023-12-14T07:28:48;5.60;97.26
71096;DHT22;58753;49.440;11.126;2023-12-14T07:31:13;5.60;97.22
71096;DHT22;58753;49.440;11.126;2023-12-14T07:33:39;5.59;97.28
71096;DHT22;58753;49.440;11.126;2023-12-14T07:36:04;5.60;97.27
71096;DHT22;58753;49.440;11.126;2023-12-14T07:38:31;5.60;97.29
71096;DHT22;58753;49.440;11.126;2023-12-14T07:40:56;5.64;97.24
71096;DHT22;58753;49.440;11.126;2023-12-14T07:43:22;5.66;97.22
71096;DHT22;58753;49.440;11.126;2023-12-14T07:45:48;5.63;97.19
71096;DHT22;58753;49.440;11.126;2023-12-14T07:48:13;5.66;97.22
71096;DHT22;58753;49.440;11.126;2023-12-14T07:50:39;5.69;97.25
71096;DHT22;58753;49.440;11.126;2023-12-14T07:53:04;5.69;97.16
71096;DHT22;58753;49.440;11.126;2023-12-14T07:55:30;5.70;97.09
71096;DHT22;58753;49.440;11.126;2023-12-14T07:57:56;5.69;97.03
71096;DHT22;58753;49.440;11.126;2023-12-14T08:00:21;5.73;97.12
71096;DHT22;58753;49.440;11.126;2023-12-14T08:02:47;5.71;97.05
71096;DHT22;58753;49.440;11.126;2023-12-14T08:05:12;5.71;97.08
71096;DHT22;58753;49.440;11.126;2023-12-14T08:07:38;5.74;97.06
71096;DHT22;58753;49.440;11.126;2023-12-14T08:10:03;5.74;96.94
71096;DHT22;58753;49.440;11.126;2023-12-14T08:12:29;5.73;96.88
71096;DHT22;58753;49.440;11.126;2023-12-14T08:14:54;5.71;96.70
71096;DHT22;58753;49.440;11.126;2023-12-14T08:17:20;5.70;96.69
71096;DHT22;58753;49.440;11.126;2023-12-14T08:19:46;5.70;96.76
71096;DHT22;58753;49.440;11.126;2023-12-14T08:22:12;5.71;96.86
71096;DHT22;58753;49.440;11.126;2023-12-14T08:24:38;5.69;96.79
71096;DHT22;58753;49.440;11.126;2023-12-14T08:27:04;5.67;96.82
71096;DHT22;58753;49.440;11.126;2023-12-14T08:29:29;5.70;96.97
71096;DHT22;58753;49.440;11.126;2023-12-14T08:31:55;5.83;97.03
71096;DHT22;58753;49.440;11.126;2023-12-14T08:34:23;5.93;96.87
71096;DHT22;58753;49.440;11.126;2023-12-14T08:36:49;5.97;96.77
71096;DHT22;58753;49.440;11.126;2023-12-14T08:39:14;5.98;96.74
71096;DHT22;58753;49.440;11.126;2023-12-14T08:41:40;5.97;96.65
71096;DHT22;58753;49.440;11.126;2023-12-14T08:44:07;5.98;96.68
71096;DHT22;58753;49.440;11.126;2023-12-14T08:46:43;6.01;96.55
71096;DHT22;58753;49.440;11.126;2023-12-14T08:49:10;6.01;96.46
71096;DHT22;58753;49.440;11.126;2023-12-14T08:51:36;5.98;96.47
71096;DHT22;58753;49.440;11.126;2023-12-14T08:54:01;5.98;96.49
71096;DHT22;58753;49.440;11.126;2023-12-14T08:56:26;6.01;96.48
71096;DHT22;58753;49.440;11.126;2023-12-14T08:58:52;6.07;96.43
71096;DHT22;58753;49.440;11.126;2023-12-14T09:01:22;6.14;96.51
71096;DHT22;58753;49.440;11.126;2023-12-14T09:03:48;6.12;96.34
71096;DHT22;58753;49.440;11.126;2023-12-14T09:06:15;6.10;96.27
71096;DHT22;58753;49.440;11.126;2023-12-14T09:08:41;6.04;96.30
71096;DHT22;58753;49.440;11.126;2023-12-14T09:11:06;6.05;96.22
71096;DHT22;58753;49.440;11.126;2023-12-14T09:13:32;6.05;96.34
71096;DHT22;58753;49.440;11.126;2023-12-14T09:15:57;6.07;96.33
71096;DHT22;58753;49.440;11.126;2023-12-14T09:18:23;6.10;96.23
71096;DHT22;58753;49.440;11.126;2023-12-14T09:20:49;6.12;96.08
71096;DHT22;58753;49.440;11.126;2023-12-14T09:23:15;6.12;96.21
71096;DHT22;58753;49.440;11.126;2023-12-14T09:25:41;6.11;96.12
71096;DHT22;58753;49.440;11.126;2023-12-14T09:28:07;6.11;96.15
71096;DHT22;58753;49.440;11.126;2023-12-14T09:30:33;6.14;96.21
71096;DHT22;58753;49.440;11.126;2023-12-14T09:32:58;6.20;96.17
71096;DHT22;58753;49.440;11.126;2023-12-14T09:35:23;6.21;95.96
71096;DHT22;58753;49.440;11.126;2023-12-14T09:37:49;6.18;95.88
71096;DHT22;58753;49.440;11.126;2023-12-14T09:40:15;6.17;95.75
71096;DHT22;58753;49.440;11.126;2023-12-14T09:42:42;6.15;95.74
71096;DHT22;58753;49.440;11.126;2023-12-14T09:45:08;6.20;95.87
71096;DHT22;58753;49.440;11.126;2023-12-14T09:47:38;6.18;95.87
71096;DHT22;58753;49.440;11.126;2023-12-14T09:50:04;6.25;95.77
71096;DHT22;58753;49.440;11.126;2023-12-14T09:52:30;6.26;95.80
71096;DHT22;58753;49.440;11.126;2023-12-14T09:54:56;6.28;95.59
71096;DHT22;58753;49.440;11.126;2023-12-14T09:57:21;6.29;95.77
71096;DHT22;58753;49.440;11.126;2023-12-14T09:59:54;6.36;95.71
71096;DHT22;58753;49.440;11.126;2023-12-14T10:02:20;6.39;95.62
71096;DHT22;58753;49.440;11.126;2023-12-14T10:04:49;6.41;95.36
71096;DHT22;58753;49.440;11.126;2023-12-14T10:07:15;6.39;95.12
71096;DHT22;58753;49.440;11.126;2023-12-14T10:09:42;6.39;95.00
71096;DHT22;58753;49.440;11.126;2023-12-14T10:12:08;6.45;95.16
71096;DHT22;58753;49.440;11.126;2023-12-14T10:14:35;6.50;95.06
71096;DHT22;58753;49.440;11.126;2023-12-14T10:17:20;6.56;94.98
71096;DHT22;58753;49.440;11.126;2023-12-14T10:19:47;6.59;94.71
71096;DHT22;58753;49.440;11.126;2023-12-14T10:22:14;6.62;94.83
71096;DHT22;58753;49.440;11.126;2023-12-14T10:24:43;6.73;94.69
71096;DHT22;58753;49.440;11.126;2023-12-14T10:27:09;6.79;94.27
71096;DHT22;58753;49.440;11.126;2023-12-14T10:29:34;6.79;94.46
71096;DHT22;58753;49.440;11.126;2023-12-14T10:32:03;6.75;94.30
71096;DHT22;58753;49.440;11.126;2023-12-14T10:34:32;6.79;94.33
71096;DHT22;58753;49.440;11.126;2023-12-14T10:36:58;6.85;94.37
71096;DHT22;58753;49.440;11.126;2023-12-14T10:39:24;6.87;94.13
71096;DHT22;58753;49.440;11.126;2023-12-14T10:41:52;6.93;94.18
71096;DHT22;58753;49.440;11.126;2023-12-14T10:44:21;6.93;93.69
71096;DHT22;58753;49.440;11.126;2023-12-14T10:46:54;7.07;94.27
71096;DHT22;58753;49.440;11.126;2023-12-14T10:49:23;7.24;94.01
71096;DHT22;58753;49.440;11.126;2023-12-14T10:51:48;7.37;93.68
71096;DHT22;58753;49.440;11.126;2023-12-14T10:54:15;7.40;93.58
71096;DHT22;58753;49.440;11.126;2023-12-14T10:56:41;7.35;93.26
71096;DHT22;58753;49.440;11.126;2023-12-14T10:59:07;7.38;93.30
71096;DHT22;58753;49.440;11.126;2023-12-14T11:01:33;7.48;93.29
71096;DHT22;58753;49.440;11.126;2023-12-14T11:04:00;7.51;93.29
71096;DHT22;58753;49.440;11.126;2023-12-14T11:06:35;7.47;93.02
71096;DHT22;58753;49.440;11.126;2023-12-14T11:09:04;7.43;92.98
71096;DHT22;58753;49.440;11.126;2023-12-14T11:11:40;7.43;92.79
71096;DHT22;58753;49.440;11.126;2023-12-14T11:14:08;7.32;92.68
71096;DHT22;58753;49.440;11.126;2023-12-14T11:16:36;7.35;92.81
71096;DHT22;58753;49.440;11.126;2023-12-14T11:19:26;7.43;92.64
71096;DHT22;58753;49.440;11.126;2023-12-14T11:24:22;7.46;92.53
71096;DHT22;58753;49.440;11.126;2023-12-14T11:26:51;7.44;92.44
71096;DHT22;58753;49.440;11.126;2023-12-14T11:29:19;7.41;92.41
71096;DHT22;58753;49.440;11.126;2023-12-14T11:31:45;7.35;92.31
71096;DHT22;58753;49.440;11.126;2023-12-14T11:34:11;7.34;92.51
71096;DHT22;58753;49.440;11.126;2023-12-14T11:36:37;7.35;92.70
71096;DHT22;58753;49.440;11.126;2023-12-14T11:39:07;7.31;92.52
71096;DHT22;58753;49.440;11.126;2023-12-14T11:41:33;7.26;92.49
71096;DHT22;58753;49.440;11.126;2023-12-14T11:43:59;7.30;92.66
71096;DHT22;58753;49.440;11.126;2023-12-14T11:46:25;7.28;92.55
71096;DHT22;58753;49.440;11.126;2023-12-14T11:48:50;7.32;92.50
71096;DHT22;58753;49.440;11.126;2023-12-14T11:51:16;7.30;92.21
71096;DHT22;58753;49.440;11.126;2023-12-14T11:53:50;7.27;92.32
71096;DHT22;58753;49.440;11.126;2023-12-14T11:56:19;7.23;92.15
71096;DHT22;58753;49.440;11.126;2023-12-14T11:58:45;7.20;92.18
71096;DHT22;58753;49.440;11.126;2023-12-14T12:01:16;7.20;92.28
71096;DHT22;58753;49.440;11.126;2023-12-14T12:03:42;7.17;92.21
71096;DHT22;58753;49.440;11.126;2023-12-14T12:06:24;7.20;92.44
71096;DHT22;58753;49.440;11.126;2023-12-14T12:08:51;7.21;92.43
71096;DHT22;58753;49.440;11.126;2023-12-14T12:11:18;7.26;92.21
71096;DHT22;58753;49.440;11.126;2023-12-14T12:13:43;7.32;92.16
71096;DHT22;58753;49.440;11.126;2023-12-14T12:16:09;7.32;91.94
71096;DHT22;58753;49.440;11.126;2023-12-14T12:18:34;7.38;92.09
71096;DHT22;58753;49.440;11.126;2023-12-14T12:20:59;7.44;92.06
71096;DHT22;58753;49.440;11.126;2023-12-14T12:23:29;7.47;91.67
71096;DHT22;58753;49.440;11.126;2023-12-14T12:25:55;7.46;91.73
71096;DHT22;58753;49.440;11.126;2023-12-14T12:28:21;7.48;91.54
71096;DHT22;58753;49.440;11.126;2023-12-14T12:30:47;7.44;91.29
71096;DHT22;58753;49.440;11.126;2023-12-14T12:33:12;7.44;91.18
71096;DHT22;58753;49.440;11.126;2023-12-14T12:35:38;7.47;91.39
71096;DHT22;58753;49.440;11.126;2023-12-14T12:38:03;7.46;91.04
71096;DHT22;58753;49.440;11.126;2023-12-14T12:40:28;7.47;91.02
71096;DHT22;58753;49.440;11.126;2023-12-14T12:42:56;7.44;90.81
71096;DHT22;58753;49.440;11.126;2023-12-14T12:45:21;7.46;90.75
71096;DHT22;58753;49.440;11.126;2023-12-14T12:47:47;7.43;90.75
71096;DHT22;58753;49.440;11.126;2023-12-14T12:50:13;7.44;90.80
71096;DHT22;58753;49.440;11.126;2023-12-14T12:52:39;7.40;90.92
71096;DHT22;58753;49.440;11.126;2023-12-14T12:55:05;7.44;90.68
71096;DHT22;58753;49.440;11.126;2023-12-14T12:57:31;7.44;90.68
71096;DHT22;58753;49.440;11.126;2023-12-14T12:59:57;7.40;90.61
71096;DHT22;58753;49.440;11.126;2023-12-14T13:02:22;7.38;90.61
71096;DHT22;58753;49.440;11.126;2023-12-14T13:04:48;7.37;90.62
71096;DHT22;58753;49.440;11.126;2023-12-14T13:07:14;7.38;90.76
71096;DHT22;58753;49.440;11.126;2023-12-14T13:09:39;7.31;90.37
71096;DHT22;58753;49.440;11.126;2023-12-14T13:12:05;7.28;90.75
71096;DHT22;58753;49.440;11.126;2023-12-14T13:14:31;7.26;90.63
71096;DHT22;58753;49.440;11.126;2023-12-14T13:16:56;7.26;90.72
71096;DHT22;58753;49.440;11.126;2023-12-14T13:19:24;7.23;90.64
71096;DHT22;58753;49.440;11.126;2023-12-14T13:21:51;7.20;90.71
71096;DHT22;58753;49.440;11.126;2023-12-14T13:24:16;7.17;90.67
71096;DHT22;58753;49.440;11.126;2023-12-14T13:26:42;7.18;90.87
71096;DHT22;58753;49.440;11.126;2023-12-14T13:29:07;7.11;90.64
71096;DHT22;58753;49.440;11.126;2023-12-14T13:31:32;7.11;90.83
71096;DHT22;58753;49.440;11.126;2023-12-14T13:33:58;7.07;91.06
71096;DHT22;58753;49.440;11.126;2023-12-14T13:36:23;7.06;90.93
71096;DHT22;58753;49.440;11.126;2023-12-14T13:38:49;6.97;91.12
71096;DHT22;58753;49.440;11.126;2023-12-14T13:41:14;6.89;91.24
71096;DHT22;58753;49.440;11.126;2023-12-14T13:43:40;6.85;91.42
71096;DHT22;58753;49.440;11.126;2023-12-14T13:46:05;6.76;91.52
71096;DHT22;58753;49.440;11.126;2023-12-14T13:48:31;6.72;91.73
71096;DHT22;58753;49.440;11.126;2023-12-14T13:50:56;6.71;92.07
71096;DHT22;58753;49.440;11.126;2023-12-14T13:53:22;6.71;92.09
71096;DHT22;58753;49.440;11.126;2023-12-14T13:55:48;6.69;92.31
71096;DHT22;58753;49.440;11.126;2023-12-14T13:58:14;6.63;92.41
71096;DHT22;58753;49.440;11.126;2023-12-14T14:00:40;6.56;92.61
71096;DHT22;58753;49.440;11.126;2023-12-14T14:03:06;6.55;92.71
71096;DHT22;58753;49.440;11.126;2023-12-14T14:05:32;6.50;92.95
71096;DHT22;58753;49.440;11.126;2023-12-14T14:07:58;6.49;93.05
71096;DHT22;58753;49.440;11.126;2023-12-14T14:10:23;6.46;93.03
71096;DHT22;58753;49.440;11.126;2023-12-14T14:12:49;6.44;93.24
71096;DHT22;58753;49.440;11.126;2023-12-14T14:15:15;6.42;93.32
71096;DHT22;58753;49.440;11.126;2023-12-14T14:17:41;6.39;93.44
71096;DHT22;58753;49.440;11.126;2023-12-14T14:20:06;6.34;93.45
71096;DHT22;58753;49.440;11.126;2023-12-14T14:22:33;6.28;93.57
71096;DHT22;58753;49.440;11.126;2023-12-14T14:24:59;6.26;93.67
71096;DHT22;58753;49.440;11.126;2023-12-14T14:27:25;6.21;93.60
71096;DHT22;58753;49.440;11.126;2023-12-14T14:29:50;6.14;93.74
71096;DHT22;58753;49.440;11.126;2023-12-14T14:32:19;6.12;93.73
71096;DHT22;58753;49.440;11.126;2023-12-14T14:34:44;6.05;93.76
71096;DHT22;58753;49.440;11.126;2023-12-14T14:37:10;6.02;93.91
71096;DHT22;58753;49.440;11.126;2023-12-14T14:39:36;6.00;93.94
71096;DHT22;58753;49.440;11.126;2023-12-14T14:42:03;6.01;94.05
71096;DHT22;58753;49.440;11.126;2023-12-14T14:44:28;6.00;94.18
71096;DHT22;58753;49.440;11.126;2023-12-14T14:46:54;6.02;94.11
71096;DHT22;58753;49.440;11.126;2023-12-14T14:49:19;6.02;94.22
71096;DHT22;58753;49.440;11.126;2023-12-14T14:51:44;6.04;94.24
71096;DHT22;58753;49.440;11.126;2023-12-14T14:54:10;6.02;94.26
71096;DHT22;58753;49.440;11.126;2023-12-14T14:56:35;6.01;94.16
71096;DHT22;58753;49.440;11.126;2023-12-14T14:59:01;6.10;94.31
71096;DHT22;58753;49.440;11.126;2023-12-14T15:01:26;6.10;94.20
71096;DHT22;58753;49.440;11.126;2023-12-14T15:03:52;6.10;94.16
71096;DHT22;58753;49.440;11.126;2023-12-14T15:06:17;6.05;94.21
71096;DHT22;58753;49.440;11.126;2023-12-14T15:08:42;6.14;94.42
71096;DHT22;58753;49.440;11.126;2023-12-14T15:11:08;6.12;94.30
71096;DHT22;58753;49.440;11.126;2023-12-14T15:13:36;6.11;94.25
71096;DHT22;58753;49.440;11.126;2023-12-14T15:16:01;6.11;94.26
71096;DHT22;58753;49.440;11.126;2023-12-14T15:18:26;6.14;94.31
71096;DHT22;58753;49.440;11.126;2023-12-14T15:20:52;6.10;94.29
71096;DHT22;58753;49.440;11.126;2023-12-14T15:23:18;6.11;94.34
71096;DHT22;58753;49.440;11.126;2023-12-14T15:25:44;6.14;94.38